sensor_id;sensor_type;location;lat;lon;timestamp;temperature;humidity
18131;DHT22;9191;54.324;10.126;2023-02-05T00:00:43;0.90;99.90
18131;DHT22;9191;54.324;10.126;2023-02-05T00:03:10;0.90;99.90
18131;DHT22;9191;54.324;10.126;2023-02-05T00:05:36;0.80;99.90
18131;DHT22;9191;54.324;10.126;2023-02-05T00:08:04;0.80;99.90
18131;DHT22;9191;54.324;10.126;2023-02-05T00:10:30;0.70;99.90
18131;DHT22;9191;54.324;10.126;2023-02-05T00:12:57;0.70;99.90
18131;DHT22;9191;54.324;10.126;2023-02-05T00:15:24;0.70;99.90
18131;DHT22;9191;54.324;10.126;2023-02-05T00:17:54;0.60;99.90
18131;DHT22;9191;54.324;10.126;2023-02-05T00:20:21;0.70;99.90
18131;DHT22;9191;54.324;10.126;2023-02-05T00:22:48;0.60;99.90
18131;DHT22;9191;54.324;10.126;2023-02-05T00:25:14;0.70;99.90
18131;DHT22;9191;54.324;10.126;2023-02-05T00:27:41;0.70;99.90
18131;DHT22;9191;54.324;10.126;2023-02-05T00:30:08;0.60;99.90
18131;DHT22;9191;54.324;10.126;2023-02-05T00:32:37;0.50;99.90
18131;DHT22;9191;54.324;10.126;2023-02-05T00:35:07;0.50;99.90
18131;DHT22;9191;54.324;10.126;2023-02-05T00:37:33;0.50;99.90
18131;DHT22;9191;54.324;10.126;2023-02-05T00:40:04;0.40;99.90
18131;DHT22;9191;54.324;10.126;2023-02-05T00:42:31;0.40;99.90
18131;DHT22;9191;54.324;10.126;2023-02-05T00:44:58;0.50;99.90
18131;DHT22;9191;54.324;10.126;2023-02-05T00:47:24;0.50;99.90
18131;DHT22;9191;54.324;10.126;2023-02-05T00:49:52;0.50;99.90
18131;DHT22;9191;54.324;10.126;2023-02-05T00:52:20;0.50;99.90
18131;DHT22;9191;54.324;10.126;2023-02-05T00:54:47;0.50;99.90
18131;DHT22;9191;54.324;10.126;2023-02-05T00:57:14;0.50;99.90
18131;DHT22;9191;54.324;10.126;2023-02-05T00:59:42;0.60;99.90
18131;DHT22;9191;54.324;10.126;2023-02-05T01:02:22;0.50;99.90
18131;DHT22;9191;54.324;10.126;2023-02-05T01:04:50;0.40;99.90
18131;DHT22;9191;54.324;10.126;2023-02-05T01:07:21;0.40;99.90
18131;DHT22;9191;54.324;10.126;2023-02-05T01:09:47;0.30;99.90
18131;DHT22;9191;54.324;10.126;2023-02-05T01:12:14;0.30;99.90
18131;DHT22;9191;54.324;10.126;2023-02-05T01:14:43;0.30;99.90
18131;DHT22;9191;54.324;10.126;2023-02-05T01:17:10;0.20;99.90
18131;DHT22;9191;54.324;10.126;2023-02-05T01:19:36;0.20;99.90
18131;DHT22;9191;54.324;10.126;2023-02-05T01:22:03;0.20;99.90
18131;DHT22;9191;54.324;10.126;2023-02-05T01:24:36;0.20;99.90
18131;DHT22;9191;54.324;10.126;2023-02-05T01:27:04;0.30;99.90
18131;DHT22;9191;54.324;10.126;2023-02-05T01:29:30;0.30;99.90
18131;DHT22;9191;54.324;10.126;2023-02-05T01:32:00;0.40;99.90
18131;DHT22;9191;54.324;10.126;2023-02-05T01:34:26;0.30;99.90
18131;DHT22;9191;54.324;10.126;2023-02-05T01:36:53;0.30;99.90
18131;DHT22;9191;54.324;10.126;2023-02-05T01:39:20;0.20;99.90
18131;DHT22;9191;54.324;10.126;2023-02-05T01:41:48;0.20;99.90
18131;DHT22;9191;54.324;10.126;2023-02-05T01:44:16;0.20;99.90
18131;DHT22;9191;54.324;10.126;2023-02-05T01:46:44;0.20;99.90
18131;DHT22;9191;54.324;10.126;2023-02-05T01:49:11;0.30;99.90
18131;DHT22;9191;54.324;10.126;2023-02-05T01:51:44;0.20;99.90
18131;DHT22;9191;54.324;10.126;2023-02-05T01:54:12;0.20;99.90
18131;DHT22;9191;54.324;10.126;2023-02-05T01:56:39;0.20;99.90
18131;DHT22;9191;54.324;10.126;2023-02-05T01:59:11;0.20;99.90
18131;DHT22;9191;54.324;10.126;2023-02-05T02:01:39;0.10;99.90
18131;DHT22;9191;54.324;10.126;2023-02-05T02:04:06;0.10;99.90
18131;DHT22;9191;54.324;10.126;2023-02-05T02:06:34;0.20;99.90
18131;DHT22;9191;54.324;10.126;2023-02-05T02:09:00;0.30;99.90
18131;DHT22;9191;54.324;10.126;2023-02-05T02:11:27;0.30;99.90
18131;DHT22;9191;54.324;10.126;2023-02-05T02:13:56;0.50;99.90
18131;DHT22;9191;54.324;10.126;2023-02-05T02:16:27;0.50;99.90
18131;DHT22;9191;54.324;10.126;2023-02-05T02:18:54;0.50;99.90
18131;DHT22;9191;54.324;10.126;2023-02-05T02:21:34;0.50;99.90
18131;DHT22;9191;54.324;10.126;2023-02-05T02:24:21;0.50;99.90
18131;DHT22;9191;54.324;10.126;2023-02-05T02:26:57;0.50;99.90
18131;DHT22;9191;54.324;10.126;2023-02-05T02:29:30;0.60;99.90
18131;DHT22;9191;54.324;10.126;2023-02-05T02:31:59;0.60;99.90
18131;DHT22;9191;54.324;10.126;2023-02-05T02:34:32;0.70;99.90
18131;DHT22;9191;54.324;10.126;2023-02-05T02:37:03;0.60;99.90
18131;DHT22;9191;54.324;10.126;2023-02-05T02:39:32;0.60;99.90
18131;DHT22;9191;54.324;10.126;2023-02-05T02:42:07;0.70;99.90
18131;DHT22;9191;54.324;10.126;2023-02-05T02:44:41;0.70;99.90
18131;DHT22;9191;54.324;10.126;2023-02-05T02:47:11;0.70;99.90
18131;DHT22;9191;54.324;10.126;2023-02-05T02:49:40;0.80;99.90
18131;DHT22;9191;54.324;10.126;2023-02-05T02:52:10;0.80;99.90
18131;DHT22;9191;54.324;10.126;2023-02-05T02:54:40;0.80;99.90
18131;DHT22;9191;54.324;10.126;2023-02-05T02:57:10;0.80;99.90
18131;DHT22;9191;54.324;10.126;2023-02-05T02:59:38;0.80;99.90
18131;DHT22;9191;54.324;10.126;2023-02-05T03:02:10;0.80;99.90
18131;DHT22;9191;54.324;10.126;2023-02-05T03:04:38;0.80;99.90
18131;DHT22;9191;54.324;10.126;2023-02-05T03:07:09;0.80;99.90
18131;DHT22;9191;54.324;10.126;2023-02-05T03:09:38;0.80;99.90
18131;DHT22;9191;54.324;10.126;2023-02-05T03:12:06;0.80;99.90
18131;DHT22;9191;54.324;10.126;2023-02-05T03:14:33;0.80;99.90
18131;DHT22;9191;54.324;10.126;2023-02-05T03:17:03;0.80;99.90
18131;DHT22;9191;54.324;10.126;2023-02-05T03:19:34;0.80;99.90
18131;DHT22;9191;54.324;10.126;2023-02-05T03:22:03;0.70;99.90
18131;DHT22;9191;54.324;10.126;2023-02-05T03:24:30;0.70;99.90
18131;DHT22;9191;54.324;10.126;2023-02-05T03:27:02;0.60;99.90
18131;DHT22;9191;54.324;10.126;2023-02-05T03:29:30;0.60;99.90
18131;DHT22;9191;54.324;10.126;2023-02-05T03:32:00;0.60;99.90
18131;DHT22;9191;54.324;10.126;2023-02-05T03:34:39;0.70;99.90
18131;DHT22;9191;54.324;10.126;2023-02-05T03:37:16;0.70;99.90
18131;DHT22;9191;54.324;10.126;2023-02-05T03:39:52;0.60;99.90
18131;DHT22;9191;54.324;10.126;2023-02-05T03:42:28;0.70;99.90
18131;DHT22;9191;54.324;10.126;2023-02-05T03:45:03;0.70;99.90
18131;DHT22;9191;54.324;10.126;2023-02-05T03:47:36;0.80;99.90
18131;DHT22;9191;54.324;10.126;2023-02-05T03:50:10;0.70;99.90
18131;DHT22;9191;54.324;10.126;2023-02-05T03:52:40;0.70;99.90
18131;DHT22;9191;54.324;10.126;2023-02-05T03:55:08;0.70;99.90
18131;DHT22;9191;54.324;10.126;2023-02-05T03:57:37;0.80;99.90
18131;DHT22;9191;54.324;10.126;2023-02-05T04:00:05;0.70;99.90
18131;DHT22;9191;54.324;10.126;2023-02-05T04:02:32;0.80;99.90
18131;DHT22;9191;54.324;10.126;2023-02-05T04:04:59;0.70;99.90
18131;DHT22;9191;54.324;10.126;2023-02-05T04:07:27;0.80;99.90
18131;DHT22;9191;54.324;10.126;2023-02-05T04:09:53;0.70;99.90
18131;DHT22;9191;54.324;10.126;2023-02-05T04:12:20;0.70;99.90
18131;DHT22;9191;54.324;10.126;2023-02-05T04:14:47;0.70;99.90
18131;DHT22;9191;54.324;10.126;2023-02-05T04:17:13;0.70;99.90
18131;DHT22;9191;54.324;10.126;2023-02-05T04:19:40;0.80;99.90
18131;DHT22;9191;54.324;10.126;2023-02-05T04:22:06;0.60;99.90
18131;DHT22;9191;54.324;10.126;2023-02-05T04:24:35;0.70;99.90
18131;DHT22;9191;54.324;10.126;2023-02-05T04:27:01;0.50;99.90
18131;DHT22;9191;54.324;10.126;2023-02-05T04:29:28;0.60;99.90
18131;DHT22;9191;54.324;10.126;2023-02-05T04:31:54;0.60;99.90
18131;DHT22;9191;54.324;10.126;2023-02-05T04:34:21;0.60;99.90
18131;DHT22;9191;54.324;10.126;2023-02-05T04:36:48;0.60;99.90
18131;DHT22;9191;54.324;10.126;2023-02-05T04:39:14;0.60;99.90
18131;DHT22;9191;54.324;10.126;2023-02-05T04:41:43;0.60;99.90
18131;DHT22;9191;54.324;10.126;2023-02-05T04:44:10;0.60;99.90
18131;DHT22;9191;54.324;10.126;2023-02-05T04:46:37;0.60;99.90
18131;DHT22;9191;54.324;10.126;2023-02-05T04:49:03;0.60;99.90
18131;DHT22;9191;54.324;10.126;2023-02-05T04:51:30;0.60;99.90
18131;DHT22;9191;54.324;10.126;2023-02-05T04:53:57;0.60;99.90
18131;DHT22;9191;54.324;10.126;2023-02-05T04:56:23;0.60;99.90
18131;DHT22;9191;54.324;10.126;2023-02-05T04:58:51;0.60;99.90
18131;DHT22;9191;54.324;10.126;2023-02-05T05:01:19;0.70;99.90
18131;DHT22;9191;54.324;10.126;2023-02-05T05:03:46;0.70;99.90
18131;DHT22;9191;54.324;10.126;2023-02-05T05:06:13;0.80;99.90
18131;DHT22;9191;54.324;10.126;2023-02-05T05:08:40;0.90;99.90
18131;DHT22;9191;54.324;10.126;2023-02-05T05:11:07;0.80;99.90
18131;DHT22;9191;54.324;10.126;2023-02-05T05:13:34;0.80;99.90
18131;DHT22;9191;54.324;10.126;2023-02-05T05:16:02;0.90;99.90
18131;DHT22;9191;54.324;10.126;2023-02-05T05:18:30;0.80;99.90
18131;DHT22;9191;54.324;10.126;2023-02-05T05:20:57;0.80;99.90
18131;DHT22;9191;54.324;10.126;2023-02-05T05:23:24;0.80;99.90
18131;DHT22;9191;54.324;10.126;2023-02-05T05:25:50;0.80;99.90
18131;DHT22;9191;54.324;10.126;2023-02-05T05:28:17;0.90;99.90
18131;DHT22;9191;54.324;10.126;2023-02-05T05:30:44;0.90;99.90
18131;DHT22;9191;54.324;10.126;2023-02-05T05:33:12;1.00;99.90
18131;DHT22;9191;54.324;10.126;2023-02-05T05:35:39;1.00;99.90
18131;DHT22;9191;54.324;10.126;2023-02-05T05:38:06;1.10;99.90
18131;DHT22;9191;54.324;10.126;2023-02-05T05:40:33;1.00;99.90
18131;DHT22;9191;54.324;10.126;2023-02-05T05:43:18;0.90;99.90
18131;DHT22;9191;54.324;10.126;2023-02-05T05:46:03;0.90;99.90
18131;DHT22;9191;54.324;10.126;2023-02-05T05:48:31;1.00;99.90
18131;DHT22;9191;54.324;10.126;2023-02-05T05:50:58;1.00;99.90
18131;DHT22;9191;54.324;10.126;2023-02-05T05:53:24;1.10;99.90
18131;DHT22;9191;54.324;10.126;2023-02-05T05:55:51;1.00;99.90
18131;DHT22;9191;54.324;10.126;2023-02-05T05:58:18;1.00;99.90
18131;DHT22;9191;54.324;10.126;2023-02-05T06:00:44;1.00;99.90
18131;DHT22;9191;54.324;10.126;2023-02-05T06:03:11;0.90;99.90
18131;DHT22;9191;54.324;10.126;2023-02-05T06:05:39;0.90;99.90
18131;DHT22;9191;54.324;10.126;2023-02-05T06:08:06;0.90;99.90
18131;DHT22;9191;54.324;10.126;2023-02-05T06:10:32;0.80;99.90
18131;DHT22;9191;54.324;10.126;2023-02-05T06:12:59;0.80;99.90
18131;DHT22;9191;54.324;10.126;2023-02-05T06:15:26;0.90;99.90
18131;DHT22;9191;54.324;10.126;2023-02-05T06:17:52;0.90;99.90
18131;DHT22;9191;54.324;10.126;2023-02-05T06:20:19;0.90;99.90
18131;DHT22;9191;54.324;10.126;2023-02-05T06:22:47;0.90;99.90
18131;DHT22;9191;54.324;10.126;2023-02-05T06:25:14;0.90;99.90
18131;DHT22;9191;54.324;10.126;2023-02-05T06:27:41;0.90;99.90
18131;DHT22;9191;54.324;10.126;2023-02-05T06:30:08;0.90;99.90
18131;DHT22;9191;54.324;10.126;2023-02-05T06:32:34;1.00;99.90
18131;DHT22;9191;54.324;10.126;2023-02-05T06:35:01;1.00;99.90
18131;DHT22;9191;54.324;10.126;2023-02-05T06:37:28;1.00;99.90
18131;DHT22;9191;54.324;10.126;2023-02-05T06:39:57;1.00;99.90
18131;DHT22;9191;54.324;10.126;2023-02-05T06:42:23;1.00;99.90
18131;DHT22;9191;54.324;10.126;2023-02-05T06:44:50;1.00;99.90
18131;DHT22;9191;54.324;10.126;2023-02-05T06:47:16;1.00;99.90
18131;DHT22;9191;54.324;10.126;2023-02-05T06:49:43;1.20;99.90
18131;DHT22;9191;54.324;10.126;2023-02-05T06:52:12;1.10;99.90
18131;DHT22;9191;54.324;10.126;2023-02-05T06:54:39;1.10;99.90
18131;DHT22;9191;54.324;10.126;2023-02-05T06:57:09;1.10;99.90
18131;DHT22;9191;54.324;10.126;2023-02-05T06:59:38;1.10;99.90
18131;DHT22;9191;54.324;10.126;2023-02-05T07:02:05;1.20;99.90
18131;DHT22;9191;54.324;10.126;2023-02-05T07:04:33;1.20;99.90
18131;DHT22;9191;54.324;10.126;2023-02-05T07:06:59;1.10;99.90
18131;DHT22;9191;54.324;10.126;2023-02-05T07:09:29;1.20;99.90
18131;DHT22;9191;54.324;10.126;2023-02-05T07:11:55;1.20;99.90
18131;DHT22;9191;54.324;10.126;2023-02-05T07:14:27;1.20;99.90
18131;DHT22;9191;54.324;10.126;2023-02-05T07:16:55;1.20;99.90
18131;DHT22;9191;54.324;10.126;2023-02-05T07:19:22;1.20;99.90
18131;DHT22;9191;54.324;10.126;2023-02-05T07:21:49;1.20;99.90
18131;DHT22;9191;54.324;10.126;2023-02-05T07:24:18;1.20;99.90
18131;DHT22;9191;54.324;10.126;2023-02-05T07:26:45;1.30;99.90
18131;DHT22;9191;54.324;10.126;2023-02-05T07:29:12;1.20;99.90
18131;DHT22;9191;54.324;10.126;2023-02-05T07:31:40;1.20;99.90
18131;DHT22;9191;54.324;10.126;2023-02-05T07:34:06;1.30;99.90
18131;DHT22;9191;54.324;10.126;2023-02-05T07:36:33;1.30;99.90
18131;DHT22;9191;54.324;10.126;2023-02-05T07:39:00;1.30;99.90
18131;DHT22;9191;54.324;10.126;2023-02-05T07:41:27;1.30;99.90
18131;DHT22;9191;54.324;10.126;2023-02-05T07:43:53;1.20;99.90
18131;DHT22;9191;54.324;10.126;2023-02-05T07:46:20;1.30;99.90
18131;DHT22;9191;54.324;10.126;2023-02-05T07:48:48;1.30;99.90
18131;DHT22;9191;54.324;10.126;2023-02-05T07:51:15;1.40;99.90
18131;DHT22;9191;54.324;10.126;2023-02-05T07:53:43;1.40;99.90
18131;DHT22;9191;54.324;10.126;2023-02-05T07:56:10;1.40;99.90
18131;DHT22;9191;54.324;10.126;2023-02-05T07:58:36;1.50;99.90
18131;DHT22;9191;54.324;10.126;2023-02-05T08:01:03;1.50;99.90
18131;DHT22;9191;54.324;10.126;2023-02-05T08:03:30;1.50;99.90
18131;DHT22;9191;54.324;10.126;2023-02-05T08:06:03;1.50;99.90
18131;DHT22;9191;54.324;10.126;2023-02-05T08:08:30;1.50;99.90
18131;DHT22;9191;54.324;10.126;2023-02-05T08:10:58;1.60;99.90
18131;DHT22;9191;54.324;10.126;2023-02-05T08:13:28;1.60;99.90
18131;DHT22;9191;54.324;10.126;2023-02-05T08:15:55;1.70;99.90
18131;DHT22;9191;54.324;10.126;2023-02-05T08:18:22;2.90;99.90
18131;DHT22;9191;54.324;10.126;2023-02-05T08:20:53;4.90;99.90
18131;DHT22;9191;54.324;10.126;2023-02-05T08:23:21;6.30;99.90
18131;DHT22;9191;54.324;10.126;2023-02-05T08:25:51;5.50;99.90
18131;DHT22;9191;54.324;10.126;2023-02-05T08:28:18;4.30;99.90
18131;DHT22;9191;54.324;10.126;2023-02-05T08:30:45;3.50;99.90
18131;DHT22;9191;54.324;10.126;2023-02-05T08:33:12;3.00;99.90
18131;DHT22;9191;54.324;10.126;2023-02-05T08:35:38;2.60;99.90
18131;DHT22;9191;54.324;10.126;2023-02-05T08:38:08;2.30;99.90
18131;DHT22;9191;54.324;10.126;2023-02-05T08:40:36;2.20;99.90
18131;DHT22;9191;54.324;10.126;2023-02-05T08:43:04;2.20;99.90
18131;DHT22;9191;54.324;10.126;2023-02-05T08:45:32;2.10;99.90
18131;DHT22;9191;54.324;10.126;2023-02-05T08:47:59;2.10;99.90
18131;DHT22;9191;54.324;10.126;2023-02-05T08:50:26;2.10;99.90
18131;DHT22;9191;54.324;10.126;2023-02-05T08:52:52;2.10;99.90
18131;DHT22;9191;54.324;10.126;2023-02-05T08:55:19;2.10;99.90
18131;DHT22;9191;54.324;10.126;2023-02-05T08:57:47;2.10;99.90
18131;DHT22;9191;54.324;10.126;2023-02-05T09:00:14;2.20;99.90
18131;DHT22;9191;54.324;10.126;2023-02-05T09:02:41;2.20;99.90
18131;DHT22;9191;54.324;10.126;2023-02-05T09:05:08;2.20;99.90
18131;DHT22;9191;54.324;10.126;2023-02-05T09:07:35;2.20;99.90
18131;DHT22;9191;54.324;10.126;2023-02-05T09:10:02;2.20;99.90
18131;DHT22;9191;54.324;10.126;2023-02-05T09:12:28;2.20;99.90
18131;DHT22;9191;54.324;10.126;2023-02-05T09:14:58;2.20;99.90
18131;DHT22;9191;54.324;10.126;2023-02-05T09:17:25;2.20;99.90
18131;DHT22;9191;54.324;10.126;2023-02-05T09:19:51;2.30;99.90
18131;DHT22;9191;54.324;10.126;2023-02-05T09:22:18;2.20;99.90
18131;DHT22;9191;54.324;10.126;2023-02-05T09:24:45;2.20;99.90
18131;DHT22;9191;54.324;10.126;2023-02-05T09:27:11;2.20;99.90
18131;DHT22;9191;54.324;10.126;2023-02-05T09:29:39;2.10;99.90
18131;DHT22;9191;54.324;10.126;2023-02-05T09:32:07;2.20;99.90
18131;DHT22;9191;54.324;10.126;2023-02-05T09:34:34;2.10;99.90
18131;DHT22;9191;54.324;10.126;2023-02-05T09:37:00;2.10;99.90
18131;DHT22;9191;54.324;10.126;2023-02-05T09:39:28;2.10;99.90
18131;DHT22;9191;54.324;10.126;2023-02-05T09:41:57;2.10;99.90
18131;DHT22;9191;54.324;10.126;2023-02-05T09:44:32;2.20;99.90
18131;DHT22;9191;54.324;10.126;2023-02-05T09:47:03;2.20;99.90
18131;DHT22;9191;54.324;10.126;2023-02-05T09:49:36;2.30;99.90
18131;DHT22;9191;54.324;10.126;2023-02-05T09:52:07;2.20;99.90
18131;DHT22;9191;54.324;10.126;2023-02-05T09:54:37;2.30;99.90
18131;DHT22;9191;54.324;10.126;2023-02-05T09:57:09;2.20;99.90
18131;DHT22;9191;54.324;10.126;2023-02-05T09:59:37;2.30;99.90
18131;DHT22;9191;54.324;10.126;2023-02-05T10:02:15;2.30;99.90
18131;DHT22;9191;54.324;10.126;2023-02-05T10:04:44;2.30;99.90
18131;DHT22;9191;54.324;10.126;2023-02-05T10:07:16;2.30;99.90
18131;DHT22;9191;54.324;10.126;2023-02-05T10:12:35;2.40;99.90
18131;DHT22;9191;54.324;10.126;2023-02-05T10:15:09;2.40;99.90
18131;DHT22;9191;54.324;10.126;2023-02-05T10:17:45;2.40;99.90
18131;DHT22;9191;54.324;10.126;2023-02-05T10:20:19;2.40;99.90
18131;DHT22;9191;54.324;10.126;2023-02-05T10:22:51;2.40;99.90
18131;DHT22;9191;54.324;10.126;2023-02-05T10:25:24;2.40;99.90
18131;DHT22;9191;54.324;10.126;2023-02-05T10:27:56;2.40;99.90
18131;DHT22;9191;54.324;10.126;2023-02-05T10:30:29;2.50;99.90
18131;DHT22;9191;54.324;10.126;2023-02-05T10:32:56;2.50;99.90
18131;DHT22;9191;54.324;10.126;2023-02-05T10:35:26;2.50;99.90
18131;DHT22;9191;54.324;10.126;2023-02-05T10:38:01;2.50;99.90
18131;DHT22;9191;54.324;10.126;2023-02-05T10:40:33;2.60;99.90
18131;DHT22;9191;54.324;10.126;2023-02-05T10:43:04;2.50;99.90
18131;DHT22;9191;54.324;10.126;2023-02-05T10:45:32;2.50;99.90
18131;DHT22;9191;54.324;10.126;2023-02-05T10:48:01;2.60;99.90
18131;DHT22;9191;54.324;10.126;2023-02-05T10:50:32;2.70;99.90
18131;DHT22;9191;54.324;10.126;2023-02-05T10:53:02;2.80;99.90
18131;DHT22;9191;54.324;10.126;2023-02-05T10:55:28;2.80;99.90
18131;DHT22;9191;54.324;10.126;2023-02-05T10:57:55;2.90;99.90
18131;DHT22;9191;54.324;10.126;2023-02-05T11:00:22;2.80;99.90
18131;DHT22;9191;54.324;10.126;2023-02-05T11:02:50;2.90;99.90
18131;DHT22;9191;54.324;10.126;2023-02-05T11:05:20;3.00;99.90
18131;DHT22;9191;54.324;10.126;2023-02-05T11:07:52;3.10;99.90
18131;DHT22;9191;54.324;10.126;2023-02-05T11:10:20;3.00;99.90
18131;DHT22;9191;54.324;10.126;2023-02-05T11:12:47;3.00;99.90
18131;DHT22;9191;54.324;10.126;2023-02-05T11:15:18;3.00;99.90
18131;DHT22;9191;54.324;10.126;2023-02-05T11:17:48;3.00;99.90
18131;DHT22;9191;54.324;10.126;2023-02-05T11:20:23;3.10;99.90
18131;DHT22;9191;54.324;10.126;2023-02-05T11:22:55;3.10;99.90
18131;DHT22;9191;54.324;10.126;2023-02-05T11:25:33;3.10;99.90
18131;DHT22;9191;54.324;10.126;2023-02-05T11:28:00;3.10;99.90
18131;DHT22;9191;54.324;10.126;2023-02-05T11:30:28;3.10;99.90
18131;DHT22;9191;54.324;10.126;2023-02-05T11:32:57;3.10;99.90
18131;DHT22;9191;54.324;10.126;2023-02-05T11:35:24;3.00;99.90
18131;DHT22;9191;54.324;10.126;2023-02-05T11:37:57;3.00;99.90
18131;DHT22;9191;54.324;10.126;2023-02-05T11:40:25;3.00;99.90
18131;DHT22;9191;54.324;10.126;2023-02-05T11:42:57;3.10;99.90
18131;DHT22;9191;54.324;10.126;2023-02-05T11:45:24;2.90;99.90
18131;DHT22;9191;54.324;10.126;2023-02-05T11:47:51;2.90;99.90
18131;DHT22;9191;54.324;10.126;2023-02-05T11:50:20;3.00;99.90
18131;DHT22;9191;54.324;10.126;2023-02-05T11:52:47;3.00;99.90
18131;DHT22;9191;54.324;10.126;2023-02-05T11:55:23;3.10;99.90
18131;DHT22;9191;54.324;10.126;2023-02-05T11:57:56;3.20;99.90
18131;DHT22;9191;54.324;10.126;2023-02-05T12:00:24;3.10;99.90
18131;DHT22;9191;54.324;10.126;2023-02-05T12:02:53;3.20;99.90
18131;DHT22;9191;54.324;10.126;2023-02-05T12:05:27;3.20;99.90
18131;DHT22;9191;54.324;10.126;2023-02-05T12:07:57;3.30;99.90
18131;DHT22;9191;54.324;10.126;2023-02-05T12:10:27;3.00;99.90
18131;DHT22;9191;54.324;10.126;2023-02-05T12:13:01;2.90;99.90
18131;DHT22;9191;54.324;10.126;2023-02-05T12:15:31;2.90;99.90
18131;DHT22;9191;54.324;10.126;2023-02-05T12:18:03;3.10;99.90
18131;DHT22;9191;54.324;10.126;2023-02-05T12:20:31;3.10;99.90
18131;DHT22;9191;54.324;10.126;2023-02-05T12:23:08;3.20;99.90
18131;DHT22;9191;54.324;10.126;2023-02-05T12:25:40;3.20;99.90
18131;DHT22;9191;54.324;10.126;2023-02-05T12:28:15;3.20;99.90
18131;DHT22;9191;54.324;10.126;2023-02-05T12:30:47;3.20;99.90
18131;DHT22;9191;54.324;10.126;2023-02-05T12:33:26;3.10;99.90
18131;DHT22;9191;54.324;10.126;2023-02-05T12:35:59;3.10;99.90
18131;DHT22;9191;54.324;10.126;2023-02-05T12:38:36;3.00;99.90
18131;DHT22;9191;54.324;10.126;2023-02-05T12:41:13;3.00;99.90
18131;DHT22;9191;54.324;10.126;2023-02-05T12:43:45;3.00;99.90
18131;DHT22;9191;54.324;10.126;2023-02-05T12:46:17;3.10;99.90
18131;DHT22;9191;54.324;10.126;2023-02-05T12:48:53;3.20;99.90
18131;DHT22;9191;54.324;10.126;2023-02-05T12:51:27;3.00;99.90
18131;DHT22;9191;54.324;10.126;2023-02-05T12:54:01;3.10;99.90
18131;DHT22;9191;54.324;10.126;2023-02-05T12:56:38;3.10;99.90
18131;DHT22;9191;54.324;10.126;2023-02-05T12:59:10;3.20;99.90
18131;DHT22;9191;54.324;10.126;2023-02-05T13:01:41;3.20;99.90
18131;DHT22;9191;54.324;10.126;2023-02-05T13:04:14;3.30;99.90
18131;DHT22;9191;54.324;10.126;2023-02-05T13:06:46;3.20;99.90
18131;DHT22;9191;54.324;10.126;2023-02-05T13:09:14;3.20;99.90
18131;DHT22;9191;54.324;10.126;2023-02-05T13:11:45;3.10;99.90
18131;DHT22;9191;54.324;10.126;2023-02-05T13:14:13;3.00;99.90
18131;DHT22;9191;54.324;10.126;2023-02-05T13:16:43;3.20;99.90
18131;DHT22;9191;54.324;10.126;2023-02-05T13:19:17;3.20;99.90
18131;DHT22;9191;54.324;10.126;2023-02-05T13:21:54;3.20;99.90
18131;DHT22;9191;54.324;10.126;2023-02-05T13:24:40;2.90;99.90
18131;DHT22;9191;54.324;10.126;2023-02-05T13:27:30;3.00;99.90
18131;DHT22;9191;54.324;10.126;2023-02-05T13:30:17;3.20;99.90
18131;DHT22;9191;54.324;10.126;2023-02-05T13:32:45;3.20;99.90
18131;DHT22;9191;54.324;10.126;2023-02-05T13:35:14;3.00;99.90
18131;DHT22;9191;54.324;10.126;2023-02-05T13:37:57;3.00;99.90
18131;DHT22;9191;54.324;10.126;2023-02-05T13:40:30;2.90;99.90
18131;DHT22;9191;54.324;10.126;2023-02-05T13:45:52;2.80;99.90
18131;DHT22;9191;54.324;10.126;2023-02-05T13:48:28;2.90;99.90
18131;DHT22;9191;54.324;10.126;2023-02-05T13:51:14;2.90;99.90
18131;DHT22;9191;54.324;10.126;2023-02-05T13:53:46;3.00;99.90
18131;DHT22;9191;54.324;10.126;2023-02-05T13:56:24;3.00;99.90
18131;DHT22;9191;54.324;10.126;2023-02-05T13:58:54;3.00;99.90
18131;DHT22;9191;54.324;10.126;2023-02-05T14:01:24;3.00;99.90
18131;DHT22;9191;54.324;10.126;2023-02-05T14:03:54;3.10;99.90
18131;DHT22;9191;54.324;10.126;2023-02-05T14:06:22;3.10;99.90
18131;DHT22;9191;54.324;10.126;2023-02-05T14:08:55;3.10;99.90
18131;DHT22;9191;54.324;10.126;2023-02-05T14:11:23;3.10;99.90
18131;DHT22;9191;54.324;10.126;2023-02-05T14:16:36;2.90;99.90
18131;DHT22;9191;54.324;10.126;2023-02-05T14:19:16;2.90;99.90
18131;DHT22;9191;54.324;10.126;2023-02-05T14:24:37;2.70;99.90
18131;DHT22;9191;54.324;10.126;2023-02-05T14:27:18;2.90;99.90
18131;DHT22;9191;54.324;10.126;2023-02-05T14:29:46;2.80;99.90
18131;DHT22;9191;54.324;10.126;2023-02-05T14:32:54;2.80;99.90
18131;DHT22;9191;54.324;10.126;2023-02-05T14:35:09;2.90;99.90
18131;DHT22;9191;54.324;10.126;2023-02-05T14:37:59;2.90;99.90
18131;DHT22;9191;54.324;10.126;2023-02-05T14:40:27;3.00;99.90
18131;DHT22;9191;54.324;10.126;2023-02-05T14:42:56;3.00;99.90
18131;DHT22;9191;54.324;10.126;2023-02-05T14:45:23;3.00;99.90
18131;DHT22;9191;54.324;10.126;2023-02-05T14:47:54;3.00;99.90
18131;DHT22;9191;54.324;10.126;2023-02-05T14:50:22;3.00;99.90
18131;DHT22;9191;54.324;10.126;2023-02-05T14:52:51;3.00;99.90
18131;DHT22;9191;54.324;10.126;2023-02-05T14:55:19;3.00;99.90
18131;DHT22;9191;54.324;10.126;2023-02-05T14:57:47;3.00;99.90
18131;DHT22;9191;54.324;10.126;2023-02-05T15:00:21;3.10;99.90
18131;DHT22;9191;54.324;10.126;2023-02-05T15:05:36;3.00;99.90
18131;DHT22;9191;54.324;10.126;2023-02-05T15:08:08;2.90;99.90
18131;DHT22;9191;54.324;10.126;2023-02-05T15:10:43;3.00;99.90
18131;DHT22;9191;54.324;10.126;2023-02-05T15:13:19;2.90;99.90
18131;DHT22;9191;54.324;10.126;2023-02-05T15:18:31;2.90;99.90
18131;DHT22;9191;54.324;10.126;2023-02-05T15:20:59;2.90;99.90
18131;DHT22;9191;54.324;10.126;2023-02-05T15:23:29;2.80;99.90
18131;DHT22;9191;54.324;10.126;2023-02-05T15:25:59;2.90;99.90
18131;DHT22;9191;54.324;10.126;2023-02-05T15:28:28;2.80;99.90
18131;DHT22;9191;54.324;10.126;2023-02-05T15:31:04;2.80;99.90
18131;DHT22;9191;54.324;10.126;2023-02-05T15:33:33;2.80;99.90
18131;DHT22;9191;54.324;10.126;2023-02-05T15:36:05;2.80;99.90
18131;DHT22;9191;54.324;10.126;2023-02-05T15:38:37;2.80;99.90
18131;DHT22;9191;54.324;10.126;2023-02-05T15:41:08;2.80;99.90
18131;DHT22;9191;54.324;10.126;2023-02-05T15:43:36;2.70;99.90
18131;DHT22;9191;54.324;10.126;2023-02-05T15:46:04;2.80;99.90
18131;DHT22;9191;54.324;10.126;2023-02-05T15:48:32;2.80;99.90
18131;DHT22;9191;54.324;10.126;2023-02-05T15:51:02;2.80;99.90
18131;DHT22;9191;54.324;10.126;2023-02-05T15:53:34;2.80;99.90
18131;DHT22;9191;54.324;10.126;2023-02-05T15:56:11;2.80;99.90
18131;DHT22;9191;54.324;10.126;2023-02-05T15:58:38;2.80;99.90
18131;DHT22;9191;54.324;10.126;2023-02-05T16:01:06;2.90;99.90
18131;DHT22;9191;54.324;10.126;2023-02-05T16:03:33;2.80;99.90
18131;DHT22;9191;54.324;10.126;2023-02-05T16:06:00;2.80;99.90
18131;DHT22;9191;54.324;10.126;2023-02-05T16:08:27;2.90;99.90
18131;DHT22;9191;54.324;10.126;2023-02-05T16:10:57;2.80;99.90
18131;DHT22;9191;54.324;10.126;2023-02-05T16:13:26;2.80;99.90
18131;DHT22;9191;54.324;10.126;2023-02-05T16:15:55;2.70;99.90